createdAt,value
2023-04-13T00:01:29.684Z,38.30
2023-04-13T00:04:04.143Z,27.57
2023-04-13T00:06:39.332Z,33.27
2023-04-13T00:09:11.489Z,26.37
2023-04-13T00:11:43.786Z,31.43
2023-04-13T00:14:16.224Z,29.20
2023-04-13T00:16:52.819Z,34.77
2023-04-13T00:19:26.057Z,35.43
2023-04-13T00:21:59.591Z,36.67
2023-04-13T00:24:31.820Z,29.73
2023-04-13T00:27:05.159Z,31.93
2023-04-13T00:29:37.944Z,34.63
2023-04-13T00:32:11.364Z,33.40
2023-04-13T00:34:44.198Z,31.47
2023-04-13T00:37:20.834Z,32.87
2023-04-13T00:39:53.889Z,29.53
2023-04-13T00:42:27.585Z,31.37
2023-04-13T00:45:00.161Z,33.77
2023-04-13T00:47:35.826Z,37.13
2023-04-13T00:50:11.876Z,34.70
2023-04-13T00:52:44.482Z,35.43
2023-04-13T00:55:21.731Z,33.60
2023-04-13T00:57:54.673Z,36.03
2023-04-13T01:00:28.073Z,30.73
2023-04-13T01:03:02.966Z,32.80
2023-04-13T01:05:49.512Z,31.20
2023-04-13T01:08:33.823Z,31.20
2023-04-13T01:11:10.788Z,31.05
2023-04-13T01:13:48.750Z,30.43
2023-04-13T01:16:27.908Z,30.77
2023-04-13T01:19:02.283Z,35.37
2023-04-13T01:21:37.102Z,31.90
2023-04-13T01:24:24.824Z,32.47
2023-04-13T01:27:07.472Z,36.23
2023-04-13T01:29:40.470Z,34.83
2023-04-13T01:32:14.118Z,34.47
2023-04-13T01:34:47.353Z,33.10
2023-04-13T01:37:21.170Z,37.17
2023-04-13T01:39:54.628Z,36.50
2023-04-13T01:42:32.124Z,39.10
2023-04-13T01:45:05.836Z,35.10
2023-04-13T01:47:40.354Z,36.80
2023-04-13T01:50:35.730Z,35.37
2023-04-13T01:53:25.548Z,32.27
2023-04-13T01:56:01.160Z,36.17
2023-04-13T01:58:36.372Z,37.60
2023-04-13T02:01:16.103Z,34.17
2023-04-13T02:03:50.379Z,35.80
2023-04-13T02:06:26.152Z,35.17
2023-04-13T02:08:59.739Z,31.63
2023-04-13T02:11:33.500Z,29.77
2023-04-13T02:14:08.334Z,37.15
2023-04-13T02:16:40.797Z,34.17
2023-04-13T02:19:13.949Z,38.00
2023-04-13T02:21:46.737Z,35.10
2023-04-13T02:24:20.070Z,32.03
2023-04-13T02:26:52.401Z,32.53
2023-04-13T02:29:25.393Z,32.53
2023-04-13T02:31:58.163Z,36.03
2023-04-13T02:34:31.026Z,32.90
2023-04-13T02:37:08.441Z,33.80
2023-04-13T02:39:41.225Z,37.17
2023-04-13T02:42:14.041Z,35.70
2023-04-13T02:44:47.105Z,31.40
2023-04-13T02:47:20.102Z,36.23
2023-04-13T02:49:53.416Z,31.55
2023-04-13T02:52:32.995Z,37.93
2023-04-13T02:55:11.336Z,33.50
2023-04-13T02:57:55.892Z,33.83
2023-04-13T03:00:28.881Z,33.53
2023-04-13T03:03:07.109Z,35.55
2023-04-13T03:05:43.834Z,35.60
2023-04-13T03:08:20.138Z,31.43
2023-04-13T03:11:19.673Z,34.80
2023-04-13T03:13:58.936Z,35.87
2023-04-13T03:19:03.633Z,30.83
2023-04-13T03:21:36.548Z,33.43
2023-04-13T03:24:14.112Z,28.53
2023-04-13T03:26:47.562Z,30.70
2023-04-13T03:29:23.325Z,29.17
2023-04-13T03:32:00.290Z,29.33
2023-04-13T03:34:36.245Z,26.23
2023-04-13T03:37:14.053Z,34.37
2023-04-13T03:39:46.980Z,29.40
2023-04-13T03:42:23.552Z,25.97
2023-04-13T03:44:59.508Z,29.10
2023-04-13T03:47:32.725Z,29.13
2023-04-13T03:50:06.628Z,32.50
2023-04-13T03:52:40.857Z,31.70
2023-04-13T03:55:14.345Z,39.87
2023-04-13T03:57:47.885Z,35.23
2023-04-13T04:00:24.354Z,29.40
2023-04-13T04:03:04.832Z,32.97
2023-04-13T04:05:43.454Z,32.23
2023-04-13T04:08:16.457Z,30.57
2023-04-13T04:10:52.326Z,36.20
2023-04-13T04:13:26.018Z,31.80
2023-04-13T04:15:59.939Z,31.83
2023-04-13T04:18:36.752Z,32.73
2023-04-13T04:21:11.435Z,37.00
2023-04-13T04:23:46.389Z,36.60
2023-04-13T04:26:26.033Z,34.90
2023-04-13T04:29:09.131Z,33.53
2023-04-13T04:31:44.564Z,41.87
2023-04-13T04:34:21.354Z,37.20
2023-04-13T04:37:02.910Z,38.57
2023-04-13T04:39:44.362Z,35.70
2023-04-13T04:44:56.696Z,38.43
2023-04-13T04:47:30.842Z,37.73
2023-04-13T04:50:19.002Z,36.60
2023-04-13T04:52:54.520Z,43.50
2023-04-13T04:55:28.890Z,46.53
2023-04-13T04:58:02.188Z,46.67
2023-04-13T05:00:35.713Z,44.93
2023-04-13T05:03:14.178Z,44.47
2023-04-13T05:05:51.815Z,51.93
2023-04-13T05:08:32.305Z,48.47
2023-04-13T05:11:08.848Z,46.20
2023-04-13T05:13:41.402Z,41.30
2023-04-13T05:16:19.521Z,48.33
2023-04-13T05:18:52.288Z,50.37
2023-04-13T05:21:50.113Z,45.60
2023-04-13T05:24:23.645Z,45.63
2023-04-13T05:26:59.042Z,42.90
2023-04-13T05:29:31.456Z,45.10
2023-04-13T05:32:04.500Z,46.20
2023-04-13T05:34:38.869Z,40.17
2023-04-13T05:37:21.934Z,48.23
2023-04-13T05:39:55.723Z,39.97
2023-04-13T05:42:33.895Z,41.73
2023-04-13T05:45:10.782Z,39.53
2023-04-13T05:47:52.785Z,34.40
2023-04-13T05:50:25.787Z,32.13
2023-04-13T05:52:58.881Z,33.87
2023-04-13T05:58:09.020Z,25.68
2023-04-13T06:00:43.288Z,27.00
2023-04-13T06:03:16.799Z,26.40
2023-04-13T06:05:49.872Z,31.75
2023-04-13T06:08:33.008Z,25.30
2023-04-13T06:11:07.173Z,23.77
2023-04-13T06:13:41.292Z,24.00
2023-04-13T06:16:14.559Z,29.70
2023-04-13T06:18:47.713Z,27.48
2023-04-13T06:21:24.078Z,33.90
2023-04-13T06:23:57.340Z,25.57
2023-04-13T06:26:40.996Z,24.67
2023-04-13T06:29:14.132Z,29.50
2023-04-13T06:31:55.981Z,25.80
2023-04-13T06:34:28.803Z,22.80
2023-04-13T06:37:01.454Z,16.23
2023-04-13T06:39:38.154Z,18.37
2023-04-13T06:42:12.537Z,25.60
2023-04-13T06:45:13.516Z,15.87
2023-04-13T06:47:48.792Z,15.70
2023-04-13T06:50:21.891Z,14.93
2023-04-13T06:52:54.461Z,23.57
2023-04-13T06:55:27.511Z,18.63
2023-04-13T06:58:01.152Z,22.80
2023-04-13T07:00:34.521Z,20.53
2023-04-13T07:03:07.928Z,13.77
2023-04-13T07:05:43.961Z,13.17
2023-04-13T07:08:20.234Z,13.93
2023-04-13T07:10:58.566Z,15.27
2023-04-13T07:13:39.494Z,14.13
2023-04-13T07:16:16.960Z,13.87
2023-04-13T07:18:51.905Z,13.50
2023-04-13T07:21:25.210Z,15.15
2023-04-13T07:24:05.101Z,12.70
2023-04-13T07:26:41.391Z,11.47
2023-04-13T07:29:16.663Z,12.90
2023-04-13T07:31:59.030Z,11.50
2023-04-13T07:34:31.991Z,12.10
2023-04-13T07:39:36.275Z,15.47
2023-04-13T07:42:09.524Z,9.88
2023-04-13T07:44:52.856Z,11.33
2023-04-13T07:49:59.190Z,14.43
2023-04-13T07:52:33.278Z,10.57
2023-04-13T07:55:06.496Z,13.50
2023-04-13T07:57:44.335Z,10.13
2023-04-13T08:00:28.029Z,12.87
2023-04-13T08:03:02.638Z,14.37
2023-04-13T08:05:38.563Z,12.67
2023-04-13T08:08:11.937Z,14.90
2023-04-13T08:10:44.383Z,13.80
2023-04-13T08:13:17.975Z,11.07
2023-04-13T08:15:50.447Z,10.85
2023-04-13T08:18:23.683Z,8.98
2023-04-13T08:20:56.284Z,10.63
2023-04-13T08:23:29.636Z,9.40
2023-04-13T08:26:03.739Z,10.05
2023-04-13T08:28:37.049Z,9.67
2023-04-13T08:31:09.503Z,10.87
2023-04-13T08:36:14.253Z,11.97
2023-04-13T08:38:47.317Z,10.87
2023-04-13T08:41:22.897Z,11.55
2023-04-13T08:43:59.901Z,11.70
2023-04-13T08:46:33.492Z,13.47
2023-04-13T08:49:09.899Z,14.80
2023-04-13T08:52:00.087Z,11.83
2023-04-13T08:54:33.572Z,13.53
2023-04-13T08:57:06.117Z,11.85
2023-04-13T08:59:43.701Z,11.23
2023-04-13T09:02:17.218Z,10.87
2023-04-13T09:05:00.425Z,12.07
2023-04-13T09:07:37.024Z,10.07
2023-04-13T09:10:17.324Z,11.10
2023-04-13T09:12:54.877Z,13.00
2023-04-13T09:15:28.320Z,9.35
2023-04-13T09:18:16.977Z,11.77
2023-04-13T09:21:02.292Z,9.93
2023-04-13T09:23:35.095Z,9.50
2023-04-13T09:26:11.484Z,9.30
2023-04-13T09:28:51.932Z,12.37
2023-04-13T09:31:28.829Z,10.37
2023-04-13T09:34:01.275Z,8.43
2023-04-13T09:36:43.750Z,7.10
2023-04-13T09:39:29.367Z,8.20
2023-04-13T09:42:14.079Z,7.07
2023-04-13T09:44:56.913Z,8.50
2023-04-13T09:47:40.645Z,8.27
2023-04-13T09:53:04.801Z,8.50
2023-04-13T09:55:38.710Z,9.13
2023-04-13T09:58:18.293Z,8.20
2023-04-13T10:00:50.895Z,8.00
2023-04-13T10:03:23.988Z,8.80
2023-04-13T10:06:00.457Z,7.57
2023-04-13T10:08:38.609Z,7.63
2023-04-13T10:11:15.257Z,9.47
2023-04-13T10:13:53.691Z,11.73
2023-04-13T10:16:52.448Z,10.27
2023-04-13T10:19:30.001Z,11.67
2023-04-13T10:22:05.788Z,7.27
2023-04-13T10:24:42.018Z,7.33
2023-04-13T10:27:19.761Z,5.43
2023-04-13T10:29:54.772Z,5.20
2023-04-13T10:32:29.732Z,6.70
2023-04-13T10:35:13.014Z,6.67
2023-04-13T10:37:46.775Z,6.05
2023-04-13T10:40:19.294Z,5.70
2023-04-13T10:42:53.385Z,10.20
2023-04-13T10:45:28.942Z,9.13
2023-04-13T10:48:01.305Z,7.87
2023-04-13T10:50:34.654Z,6.20
2023-04-13T10:53:09.181Z,6.12
2023-04-13T10:55:41.623Z,5.97
2023-04-13T10:58:18.825Z,5.63
2023-04-13T11:00:53.112Z,6.23
2023-04-13T11:03:29.997Z,4.50
2023-04-13T11:06:04.148Z,5.37
2023-04-13T11:08:39.519Z,6.60
2023-04-13T11:11:14.960Z,5.20
2023-04-13T11:13:50.713Z,5.40
2023-04-13T11:16:25.389Z,6.80
2023-04-13T11:19:05.789Z,5.70
2023-04-13T11:21:39.050Z,6.87
2023-04-13T11:24:11.868Z,5.97
2023-04-13T11:26:45.232Z,6.10
2023-04-13T11:29:23.134Z,5.83
2023-04-13T11:31:56.060Z,5.47
2023-04-13T11:34:29.965Z,5.30
2023-04-13T11:37:07.945Z,4.80
2023-04-13T11:39:43.912Z,5.13
2023-04-13T11:42:16.187Z,6.27
2023-04-13T11:44:48.535Z,6.00
2023-04-13T11:47:24.428Z,5.30
2023-04-13T11:49:56.907Z,8.53
2023-04-13T11:52:30.130Z,4.17
2023-04-13T11:55:19.147Z,6.13
2023-04-13T11:57:56.753Z,10.43
2023-04-13T12:00:29.978Z,6.00
2023-04-13T12:03:15.252Z,7.23
2023-04-13T12:06:04.411Z,7.07
2023-04-13T12:08:38.443Z,6.10
2023-04-13T12:11:39.076Z,4.87
2023-04-13T12:14:13.747Z,4.87
2023-04-13T12:19:30.250Z,5.00
2023-04-13T12:22:03.514Z,5.17
2023-04-13T12:24:39.423Z,5.53
2023-04-13T12:29:49.351Z,5.27
2023-04-13T12:32:23.734Z,6.83
2023-04-13T12:35:01.142Z,5.03
2023-04-13T12:37:33.678Z,4.87
2023-04-13T12:40:14.060Z,6.10
2023-04-13T12:42:47.950Z,5.10
2023-04-13T12:45:20.778Z,5.80
2023-04-13T12:47:54.623Z,5.20
2023-04-13T12:50:31.956Z,6.80
2023-04-13T12:53:06.203Z,5.80
2023-04-13T12:55:38.863Z,8.03
2023-04-13T12:58:11.861Z,4.93
2023-04-13T13:00:44.835Z,4.97
2023-04-13T13:03:18.024Z,4.70
2023-04-13T13:05:51.096Z,6.23
2023-04-13T13:08:24.490Z,4.90
2023-04-13T13:10:57.981Z,7.37
2023-04-13T13:13:31.168Z,5.03
2023-04-13T13:16:04.118Z,8.63
2023-04-13T13:18:49.597Z,14.07
2023-04-13T13:21:25.487Z,6.20
2023-04-13T13:23:58.381Z,6.43
2023-04-13T13:26:47.071Z,9.20
2023-04-13T13:29:28.166Z,5.40
2023-04-13T13:32:00.743Z,8.00
2023-04-13T13:34:32.982Z,4.77
2023-04-13T13:37:05.909Z,6.63
2023-04-13T13:39:38.935Z,6.30
2023-04-13T13:42:11.720Z,6.13
2023-04-13T13:44:45.748Z,6.10
2023-04-13T13:47:19.392Z,6.57
2023-04-13T13:49:54.725Z,5.87
2023-04-13T13:52:34.948Z,5.60
2023-04-13T13:55:10.007Z,5.35
2023-04-13T13:57:42.626Z,6.60
2023-04-13T14:00:18.005Z,7.10
2023-04-13T14:02:50.645Z,5.73
2023-04-13T14:05:23.443Z,6.17
2023-04-13T14:07:57.094Z,5.37
2023-04-13T14:10:29.452Z,4.83
2023-04-13T14:13:02.651Z,5.50
2023-04-13T14:15:35.178Z,5.67
2023-04-13T14:18:10.442Z,6.30
2023-04-13T14:20:44.761Z,6.73
2023-04-13T14:23:18.203Z,5.50
2023-04-13T14:25:50.534Z,5.05
2023-04-13T14:28:23.005Z,7.80
2023-04-13T14:30:55.379Z,6.77
2023-04-13T14:33:28.606Z,5.23
2023-04-13T14:36:01.353Z,10.85
2023-04-13T14:38:35.461Z,8.10
2023-04-13T14:41:08.142Z,5.90
2023-04-13T14:43:41.237Z,4.90
2023-04-13T14:46:13.809Z,5.60
2023-04-13T14:48:46.390Z,6.73
2023-04-13T14:51:20.299Z,5.30
2023-04-13T14:56:28.557Z,5.73
2023-04-13T14:59:02.084Z,5.57
2023-04-13T15:01:34.975Z,7.90
2023-04-13T15:04:07.637Z,5.33
2023-04-13T15:06:40.396Z,7.00
2023-04-13T15:09:13.443Z,5.60
2023-04-13T15:11:46.272Z,4.77
2023-04-13T15:14:18.789Z,4.87
2023-04-13T15:16:51.332Z,5.10
2023-04-13T15:19:24.484Z,4.33
2023-04-13T15:21:56.699Z,5.43
2023-04-13T15:24:29.272Z,8.67
2023-04-13T15:27:01.564Z,5.23
2023-04-13T15:29:34.098Z,6.25
2023-04-13T15:32:06.615Z,4.87
2023-04-13T15:34:39.178Z,4.87
2023-04-13T15:37:11.818Z,6.03
2023-04-13T15:39:44.536Z,8.00
2023-04-13T15:42:16.789Z,6.50
2023-04-13T15:44:49.569Z,5.13
2023-04-13T15:47:23.645Z,6.03
2023-04-13T15:49:56.246Z,4.07
2023-04-13T15:52:29.124Z,5.60
2023-04-13T15:55:01.843Z,4.47
2023-04-13T15:57:34.184Z,5.63
2023-04-13T16:00:08.884Z,5.57
2023-04-13T16:02:41.249Z,7.00
2023-04-13T16:05:14.198Z,5.73
2023-04-13T16:07:46.435Z,5.77
2023-04-13T16:10:20.495Z,11.20
2023-04-13T16:17:58.901Z,6.40
2023-04-13T16:20:32.494Z,4.03
2023-04-13T16:23:05.486Z,5.42
2023-04-13T16:25:38.657Z,5.95
2023-04-13T16:28:11.144Z,6.47
2023-04-13T16:30:43.656Z,4.53
2023-04-13T16:33:16.187Z,6.17
2023-04-13T16:35:48.829Z,5.30
2023-04-13T16:38:20.989Z,7.37
2023-04-13T16:40:54.703Z,4.80
2023-04-13T16:43:27.538Z,8.47
2023-04-13T16:46:00.117Z,4.70
2023-04-13T16:48:32.421Z,5.27
2023-04-13T16:51:05.649Z,4.83
2023-04-13T16:53:38.396Z,6.10
2023-04-13T16:56:11.319Z,7.93
2023-04-13T16:58:43.727Z,5.10
2023-04-13T17:01:16.357Z,5.47
2023-04-13T17:03:48.841Z,7.77
2023-04-13T17:06:21.852Z,10.17
2023-04-13T17:08:54.035Z,11.60
2023-04-13T17:11:28.285Z,11.57
2023-04-13T17:14:01.105Z,9.70
2023-04-13T17:16:33.613Z,6.83
2023-04-13T17:19:08.745Z,9.50
2023-04-13T17:21:41.871Z,9.77
2023-04-13T17:24:14.203Z,9.77
2023-04-13T17:26:47.043Z,6.40
2023-04-13T17:29:22.700Z,8.57
2023-04-13T17:31:55.240Z,7.90
2023-04-13T17:34:27.458Z,8.33
2023-04-13T17:37:01.276Z,9.73
2023-04-13T17:39:35.179Z,9.55
2023-04-13T17:42:08.547Z,15.23
2023-04-13T17:44:40.777Z,13.73
2023-04-13T17:47:14.788Z,10.23
2023-04-13T17:49:47.068Z,13.70
2023-04-13T17:52:19.429Z,13.27
2023-04-13T17:54:51.772Z,14.67
2023-04-13T17:57:24.854Z,12.00
2023-04-13T17:59:57.306Z,14.03
2023-04-13T18:02:30.014Z,11.50
2023-04-13T18:05:02.454Z,11.83
2023-04-13T18:07:37.376Z,13.80
2023-04-13T18:10:11.216Z,10.83
2023-04-13T18:12:44.211Z,9.25
2023-04-13T18:15:17.081Z,13.27
2023-04-13T18:17:49.281Z,13.07
2023-04-13T18:20:21.933Z,12.90
2023-04-13T18:22:54.406Z,11.17
2023-04-13T18:25:27.158Z,14.10
2023-04-13T18:27:59.674Z,18.97
2023-04-13T18:30:31.898Z,20.70
2023-04-13T18:33:04.545Z,13.17
2023-04-13T18:35:37.373Z,15.67
2023-04-13T18:38:10.219Z,17.17
2023-04-13T18:40:42.444Z,17.80
2023-04-13T18:43:15.391Z,17.03
2023-04-13T18:45:48.056Z,18.17
2023-04-13T18:48:20.798Z,16.23
2023-04-13T18:50:53.308Z,19.23
2023-04-13T18:53:26.563Z,20.87
2023-04-13T18:56:00.457Z,19.93
2023-04-13T18:58:33.133Z,19.03
2023-04-13T19:01:05.520Z,14.53
2023-04-13T19:03:38.075Z,14.60
2023-04-13T19:06:14.210Z,15.47
2023-04-13T19:08:46.734Z,15.83
2023-04-13T19:11:20.166Z,14.97
2023-04-13T19:13:55.638Z,14.87
2023-04-13T19:16:29.166Z,16.60
2023-04-13T19:19:01.720Z,14.35
2023-04-13T19:21:34.006Z,15.03
2023-04-13T19:24:06.812Z,18.50
2023-04-13T19:26:39.211Z,14.80
2023-04-13T19:29:13.112Z,17.87
2023-04-13T19:31:46.812Z,13.23
2023-04-13T19:34:19.180Z,17.65
2023-04-13T19:36:51.510Z,14.07
2023-04-13T19:39:24.456Z,17.20
2023-04-13T19:41:56.962Z,21.50
2023-04-13T19:44:29.204Z,18.53
2023-04-13T19:47:02.163Z,18.00
2023-04-13T19:49:34.398Z,17.77
2023-04-13T19:52:06.669Z,18.90
2023-04-13T19:54:38.826Z,16.73
2023-04-13T19:57:11.271Z,20.10
2023-04-13T19:59:44.171Z,18.60
2023-04-13T20:02:16.939Z,19.60
2023-04-13T20:04:50.501Z,20.47
2023-04-13T20:07:23.023Z,16.60
2023-04-13T20:09:55.199Z,22.37
2023-04-13T20:12:27.812Z,22.13
2023-04-13T20:15:00.008Z,23.00
2023-04-13T20:17:32.493Z,18.97
2023-04-13T20:20:06.682Z,21.13
2023-04-13T20:25:11.390Z,20.73
2023-04-13T20:27:44.157Z,17.60
2023-04-13T20:30:17.519Z,19.23
2023-04-13T20:32:49.837Z,24.20
2023-04-13T20:35:22.853Z,19.30
2023-04-13T20:37:55.336Z,16.70
2023-04-13T20:40:27.810Z,18.43
2023-04-13T20:43:03.270Z,20.27
2023-04-13T20:45:36.543Z,18.57
2023-04-13T20:50:48.234Z,19.27
2023-04-13T20:53:20.732Z,19.67
2023-04-13T20:55:53.637Z,18.93
2023-04-13T20:58:26.214Z,18.83
2023-04-13T21:00:59.253Z,15.67
2023-04-13T21:03:33.963Z,21.40
2023-04-13T21:06:07.975Z,17.90
2023-04-13T21:08:40.099Z,16.75
2023-04-13T21:11:12.847Z,20.23
2023-04-13T21:13:45.002Z,16.87
2023-04-13T21:16:17.994Z,19.60
2023-04-13T21:18:50.364Z,20.33
2023-04-13T21:21:23.618Z,19.83
2023-04-13T21:23:56.351Z,20.87
2023-04-13T21:26:28.770Z,21.13
2023-04-13T21:29:00.999Z,21.73
2023-04-13T21:31:33.222Z,19.37
2023-04-13T21:34:05.494Z,19.27
2023-04-13T21:39:13.555Z,17.23
2023-04-13T21:41:46.040Z,20.93
2023-04-13T21:44:29.337Z,22.43
2023-04-13T21:49:33.397Z,18.80
2023-04-13T21:52:06.182Z,16.03
2023-04-13T21:54:38.457Z,16.40
2023-04-13T21:57:11.161Z,16.13
2023-04-13T21:59:43.655Z,17.20
2023-04-13T22:02:15.973Z,14.97
2023-04-13T22:04:48.285Z,18.55
2023-04-13T22:07:31.461Z,16.67
2023-04-13T22:10:09.188Z,15.13
2023-04-13T22:12:41.449Z,16.75
2023-04-13T22:15:14.273Z,14.23
2023-04-13T22:17:46.950Z,16.33
2023-04-13T22:20:19.803Z,16.43
2023-04-13T22:22:52.316Z,14.17
2023-04-13T22:25:28.352Z,13.20
2023-04-13T22:28:00.738Z,15.90
2023-04-13T22:30:32.878Z,18.37
2023-04-13T22:33:05.272Z,13.30
2023-04-13T22:35:38.572Z,14.00
2023-04-13T22:38:11.417Z,16.60
2023-04-13T22:40:43.515Z,18.57
2023-04-13T22:43:16.080Z,17.00
2023-04-13T22:45:48.265Z,17.33
2023-04-13T22:48:21.444Z,14.97
2023-04-13T22:50:54.265Z,16.15
2023-04-13T22:53:29.086Z,15.77
2023-04-13T22:56:01.492Z,15.07
2023-04-13T22:58:33.794Z,17.37
2023-04-13T23:01:06.474Z,14.37
2023-04-13T23:03:39.023Z,13.43
2023-04-13T23:06:11.522Z,17.17
2023-04-13T23:08:43.812Z,13.27
2023-04-13T23:11:16.263Z,16.07
2023-04-13T23:13:48.597Z,15.53
2023-04-13T23:16:20.919Z,15.00
2023-04-13T23:18:55.395Z,13.97
2023-04-13T23:21:27.789Z,12.03
2023-04-13T23:24:00.116Z,13.47
2023-04-13T23:26:32.791Z,14.03
2023-04-13T23:29:05.176Z,15.20
2023-04-13T23:31:37.885Z,12.23
2023-04-13T23:34:10.215Z,12.93
2023-04-13T23:36:42.424Z,14.53
2023-04-13T23:39:14.845Z,12.60
2023-04-13T23:41:47.478Z,12.27
2023-04-13T23:44:19.623Z,12.00
2023-04-13T23:46:52.775Z,13.75
2023-04-13T23:49:26.632Z,12.63
2023-04-13T23:51:58.810Z,13.75
2023-04-13T23:54:31.344Z,12.43
2023-04-13T23:57:03.838Z,14.77
2023-04-13T23:59:36.166Z,10.97
